Time;durP1;ratioP1;P1;durP2;ratioP2;P2;SDS_P1;SDS_P2;PMS_P1;PMS_P2;Temp;Humidity;BMP_temperature;BMP_pressure;BME280_temperature;BME280_humidity;BME280_pressure;Samples;Min_cycle;Max_cycle;Signal;HPM_P1;HPM_P2
2023/06/17 00:01:10;;;;;;;1999.90;999.90;;;20.90;91.30;;;;;;5061214;28;20817;-69
2023/06/17 00:03:39;;;;;;;1999.90;999.90;;;21.30;90.90;;;;;;5059751;28;20073;-68
2023/06/17 00:06:06;;;;;;;1999.90;999.90;;;21.20;90.90;;;;;;5051112;28;20029;-70
2023/06/17 00:08:33;;;;;;;1999.90;999.90;;;21.40;90.60;;;;;;5059874;28;20024;-70
2023/06/17 00:11:01;;;;;;;1999.90;999.90;;;21.40;90.70;;;;;;5055493;28;20052;-69
2023/06/17 00:13:29;;;;;;;1999.90;999.90;;;21.50;91.40;;;;;;5057395;28;20369;-69
2023/06/17 00:15:59;;;;;;;1999.90;999.90;;;22.10;90.20;;;;;;5056499;28;20039;-69
2023/06/17 00:18:26;;;;;;;1999.90;999.90;;;22.20;90.30;;;;;;5050206;28;20031;-68
2023/06/17 00:20:57;;;;;;;1999.90;999.90;;;22.50;90.20;;;;;;5056217;28;20028;-69
2023/06/17 00:23:25;;;;;;;1999.90;999.90;;;22.50;89.70;;;;;;5056460;28;20029;-69
2023/06/17 00:25:52;;;;;;;1999.90;999.90;;;22.50;89.80;;;;;;5054034;28;21490;-69
2023/06/17 00:28:19;;;;;;;1999.90;999.90;;;22.60;89.90;;;;;;5058150;28;20035;-68
2023/06/17 00:30:47;;;;;;;1999.90;999.90;;;22.90;90.00;;;;;;5057585;28;20472;-68
2023/06/17 00:33:15;;;;;;;1999.90;999.90;;;23.00;89.40;;;;;;5051801;28;20120;-68
2023/06/17 00:35:43;;;;;;;1999.90;999.90;;;23.00;88.60;;;;;;5057406;28;20435;-69
2023/06/17 00:38:10;;;;;;;1999.90;999.90;;;23.40;87.30;;;;;;5054674;28;20033;-69
2023/06/17 00:40:37;;;;;;;1999.90;999.90;;;23.90;86.20;;;;;;5049692;28;20020;-69
2023/06/17 00:43:05;;;;;;;1999.90;999.90;;;24.00;86.10;;;;;;5061016;28;20087;-68
2023/06/17 00:45:38;;;;;;;1999.90;999.90;;;24.20;85.30;;;;;;5054073;28;20094;-68
2023/06/17 00:48:11;;;;;;;1999.90;999.90;;;24.30;84.10;;;;;;5056160;28;20037;-70
2023/06/17 00:50:39;;;;;;;1999.90;999.90;;;24.40;85.00;;;;;;5051332;28;20058;-69
2023/06/17 00:53:06;;;;;;;1999.90;999.90;;;24.50;83.60;;;;;;5061131;28;20032;-70
2023/06/17 00:55:34;;;;;;;1999.90;999.90;;;24.50;85.10;;;;;;5047443;28;20498;-69
2023/06/17 00:58:02;;;;;;;1999.90;999.90;;;25.00;84.60;;;;;;5060793;28;20383;-71
2023/06/17 01:00:29;;;;;;;1999.90;999.90;;;25.20;83.50;;;;;;5059095;28;20021;-68
2023/06/17 01:02:58;;;;;;;1999.90;999.90;;;25.40;82.40;;;;;;4954311;28;2820829;-70
2023/06/17 01:05:26;;;;;;;1999.90;999.90;;;25.50;81.90;;;;;;5051368;28;20087;-70
2023/06/17 01:08:16;;;;;;;1999.90;999.90;;;25.40;82.50;;;;;;5051966;28;20083;-69
2023/06/17 01:10:54;;;;;;;1999.90;999.90;;;25.70;82.40;;;;;;5059178;28;20495;-70
2023/06/17 01:13:24;;;;;;;1999.90;999.90;;;25.90;80.60;;;;;;5058795;28;20041;-69
2023/06/17 01:15:53;;;;;;;1999.90;999.90;;;26.20;79.70;;;;;;5055448;28;20033;-70
2023/06/17 01:18:21;;;;;;;1999.90;999.90;;;26.10;79.10;;;;;;5058548;28;20051;-68
2023/06/17 01:20:55;;;;;;;1999.90;999.90;;;26.10;79.40;;;;;;5051415;28;20091;-69
2023/06/17 01:23:31;;;;;;;1999.90;999.90;;;26.20;80.10;;;;;;5063242;28;20040;-70
2023/06/17 01:25:59;;;;;;;1999.90;999.90;;;26.60;78.80;;;;;;5053054;28;20052;-69
2023/06/17 01:28:29;;;;;;;1999.90;999.90;;;26.80;78.20;;;;;;5059533;28;20036;-69
2023/06/17 01:30:57;;;;;;;1999.90;999.90;;;26.70;78.50;;;;;;5053020;28;20411;-70
2023/06/17 01:33:25;;;;;;;1999.90;999.90;;;26.90;77.80;;;;;;5057787;28;20444;-69
2023/06/17 01:36:17;;;;;;;1999.90;999.90;;;27.10;76.80;;;;;;5059182;28;20068;-69
2023/06/17 01:38:59;;;;;;;1999.90;999.90;;;26.80;77.50;;;;;;5058127;28;20033;-69
2023/06/17 01:41:48;;;;;;;1999.90;999.90;;;26.90;77.30;;;;;;5058506;28;20032;-69
2023/06/17 01:44:17;;;;;;;1999.90;999.90;;;27.30;77.30;;;;;;5059879;28;20052;-69
2023/06/17 01:46:44;;;;;;;1999.90;999.90;;;27.40;75.80;;;;;;5051757;28;20517;-68
2023/06/17 01:49:12;;;;;;;1999.90;999.90;;;27.40;76.30;;;;;;5056332;28;20032;-70
2023/06/17 01:51:39;;;;;;;1999.90;999.90;;;27.20;76.60;;;;;;5054973;28;20502;-70
2023/06/17 01:54:06;;;;;;;1999.90;999.90;;;26.90;77.70;;;;;;5061590;28;20120;-67
2023/06/17 01:56:34;;;;;;;1999.90;999.90;;;27.10;77.20;;;;;;5054395;28;20510;-70
2023/06/17 01:59:02;;;;;;;1999.90;999.90;;;27.30;77.00;;;;;;5058337;28;20020;-70
2023/06/17 02:01:30;;;;;;;1999.90;999.90;;;27.30;76.00;;;;;;5042743;28;20495;-72
2023/06/17 02:03:57;;;;;;;1999.90;999.90;;;26.60;75.40;;;;;;5047867;28;20049;-68
2023/06/17 02:06:25;;;;;;;1999.90;999.90;;;26.50;78.50;;;;;;5054079;28;20043;-68
2023/06/17 02:08:53;;;;;;;1999.90;999.90;;;26.80;77.30;;;;;;5051666;28;20568;-69
2023/06/17 02:11:20;;;;;;;1999.90;999.90;;;26.90;75.00;;;;;;5057862;28;20145;-69
2023/06/17 02:13:47;;;;;;;1999.90;999.90;;;26.80;75.20;;;;;;5063269;28;20025;-69
2023/06/17 02:16:15;;;;;;;1999.90;999.90;;;26.70;75.90;;;;;;5055268;28;20040;-69
2023/06/17 02:18:42;;;;;;;1999.90;999.90;;;26.60;76.70;;;;;;5056404;28;20028;-68
2023/06/17 02:21:09;;;;;;;1999.90;999.90;;;26.50;77.10;;;;;;5051165;28;20490;-70
2023/06/17 02:23:37;;;;;;;1999.90;999.90;;;26.70;77.90;;;;;;5053440;28;20096;-69
2023/06/17 02:26:04;;;;;;;1999.90;999.90;;;26.90;76.30;;;;;;5053734;28;20036;-74
2023/06/17 02:28:31;;;;;;;1999.90;999.90;;;27.10;76.40;;;;;;5056315;28;20463;-69
2023/06/17 02:30:59;;;;;;;1999.90;999.90;;;27.20;77.00;;;;;;5047333;28;20040;-70
2023/06/17 02:33:27;;;;;;;1999.90;999.90;;;27.10;74.80;;;;;;5051553;28;20031;-69
2023/06/17 02:35:55;;;;;;;1999.90;999.90;;;26.80;75.20;;;;;;5045104;28;20445;-70
2023/06/17 02:38:24;;;;;;;1999.90;999.90;;;26.60;76.30;;;;;;5065986;28;20450;-69
2023/06/17 02:40:51;;;;;;;1999.90;999.90;;;26.70;76.50;;;;;;5050698;28;20036;-68
2023/06/17 02:43:19;;;;;;;1999.90;999.90;;;26.90;76.80;;;;;;5052509;28;20024;-68
2023/06/17 02:45:46;;;;;;;1999.90;999.90;;;26.90;74.20;;;;;;5048629;28;20040;-69
2023/06/17 02:48:13;;;;;;;1999.90;999.90;;;26.50;74.50;;;;;;5054590;28;20033;-69
2023/06/17 02:50:41;;;;;;;1999.90;999.90;;;26.00;75.90;;;;;;5055518;28;20428;-70
2023/06/17 02:53:10;;;;;;;1999.90;999.90;;;25.70;75.50;;;;;;5055048;28;20091;-74
2023/06/17 02:55:37;;;;;;;1999.90;999.90;;;25.40;74.80;;;;;;5048591;28;20032;-69
2023/06/17 02:58:05;;;;;;;1999.90;999.90;;;25.30;76.40;;;;;;5055138;28;20127;-69
2023/06/17 03:00:32;;;;;;;1999.90;999.90;;;25.20;76.60;;;;;;5055558;28;20064;-69
2023/06/17 03:03:00;;;;;;;1999.90;999.90;;;25.00;76.80;;;;;;5056371;28;20036;-69
2023/06/17 03:05:27;;;;;;;1999.90;999.90;;;24.60;77.80;;;;;;5055054;28;20547;-71
2023/06/17 03:07:54;;;;;;;1999.90;999.90;;;24.00;78.00;;;;;;5058566;28;20036;-72
2023/06/17 03:10:22;;;;;;;1999.90;999.90;;;23.60;78.40;;;;;;5056934;28;20443;-71
2023/06/17 03:12:50;;;;;;;1999.90;999.90;;;23.20;77.60;;;;;;5055793;28;20033;-70
2023/06/17 03:15:17;;;;;;;1999.90;999.90;;;23.10;79.10;;;;;;5058279;28;20025;-74
2023/06/17 03:17:45;;;;;;;1999.90;999.90;;;22.90;77.20;;;;;;5055868;28;20039;-72
2023/06/17 03:20:13;;;;;;;1999.90;999.90;;;22.70;76.70;;;;;;5058587;28;20066;-72
2023/06/17 03:22:40;;;;;;;1999.90;999.90;;;22.40;77.80;;;;;;5055645;28;20028;-70
2023/06/17 03:25:08;;;;;;;1999.90;999.90;;;22.10;77.60;;;;;;5058915;28;20033;-74
2023/06/17 03:27:36;;;;;;;1999.90;999.90;;;22.00;79.30;;;;;;5055567;28;20468;-71
2023/06/17 03:30:03;;;;;;;1999.90;999.90;;;21.70;79.20;;;;;;5057285;28;20024;-69
2023/06/17 03:32:31;;;;;;;1999.90;999.90;;;21.50;79.50;;;;;;5059447;28;20068;-69
2023/06/17 03:34:58;;;;;;;1999.90;999.90;;;21.30;79.30;;;;;;5060494;28;20033;-70
2023/06/17 03:37:25;;;;;;;1999.90;999.90;;;20.90;79.70;;;;;;5059699;28;20024;-72
2023/06/17 03:39:53;;;;;;;1999.90;999.90;;;20.70;80.50;;;;;;5055857;28;20025;-71
2023/06/17 03:42:20;;;;;;;1999.90;999.90;;;20.50;82.10;;;;;;5053712;28;20044;-72
2023/06/17 03:44:47;;;;;;;1999.90;999.90;;;20.40;81.20;;;;;;5053455;28;20039;-70
2023/06/17 03:47:15;;;;;;;1999.90;999.90;;;20.10;83.00;;;;;;5054362;28;20024;-72
2023/06/17 03:49:44;;;;;;;1999.90;999.90;;;19.90;83.40;;;;;;5055173;28;20082;-73
2023/06/17 03:52:11;;;;;;;1999.90;999.90;;;19.70;83.70;;;;;;5053442;28;20088;-72
2023/06/17 03:54:39;;;;;;;1999.90;999.90;;;19.50;84.60;;;;;;5054435;28;20025;-73
2023/06/17 03:57:06;;;;;;;1999.90;999.90;;;19.30;85.30;;;;;;5057051;28;20506;-70
2023/06/17 03:59:33;;;;;;;1999.90;999.90;;;19.20;86.10;;;;;;5058737;28;20032;-71
2023/06/17 04:02:01;;;;;;;1999.90;999.90;;;19.10;86.80;;;;;;5053380;28;20089;-69
2023/06/17 04:04:32;;;;;;;1999.90;999.90;;;19.10;86.60;;;;;;5056207;28;20064;-69
2023/06/17 04:07:00;;;;;;;1999.90;999.90;;;19.00;87.10;;;;;;5058860;28;20119;-69
2023/06/17 04:09:27;;;;;;;1999.90;999.90;;;18.90;87.30;;;;;;5054895;28;20029;-68
2023/06/17 04:11:54;;;;;;;1999.90;999.90;;;18.90;86.70;;;;;;5053227;28;20057;-69
2023/06/17 04:14:21;;;;;;;1999.90;999.90;;;18.80;86.10;;;;;;5049679;28;20033;-69
2023/06/17 04:16:51;;;;;;;1999.90;999.90;;;18.80;86.50;;;;;;5047252;28;20029;-68
2023/06/17 04:19:19;;;;;;;1999.90;999.90;;;18.80;86.40;;;;;;5054111;28;20080;-70
2023/06/17 04:21:46;;;;;;;1999.90;999.90;;;18.80;85.80;;;;;;5051420;28;20021;-69
2023/06/17 04:24:14;;;;;;;1999.90;999.90;;;18.70;86.10;;;;;;5056296;28;20024;-70
2023/06/17 04:26:44;;;;;;;1999.90;999.90;;;18.70;85.90;;;;;;5050112;28;20025;-71
2023/06/17 04:29:14;;;;;;;1999.90;999.90;;;18.60;85.80;;;;;;5049837;28;20026;-71
2023/06/17 04:31:46;;;;;;;1999.90;999.90;;;18.60;86.30;;;;;;5049844;28;20109;-70
2023/06/17 04:34:21;;;;;;;1999.90;999.90;;;18.50;86.30;;;;;;5063651;28;20476;-70
2023/06/17 04:36:56;;;;;;;1999.90;999.90;;;18.50;86.10;;;;;;5056507;28;20037;-70
2023/06/17 04:39:27;;;;;;;1999.90;999.90;;;18.40;86.60;;;;;;5060083;28;20063;-67
2023/06/17 04:41:56;;;;;;;1999.90;999.90;;;18.40;86.30;;;;;;5055174;28;20070;-74
2023/06/17 04:44:23;;;;;;;1999.90;999.90;;;18.40;86.50;;;;;;5057864;28;20086;-70
2023/06/17 04:46:50;;;;;;;1999.90;999.90;;;18.40;86.90;;;;;;5050565;28;20056;-72
2023/06/17 04:49:18;;;;;;;1999.90;999.90;;;18.40;86.50;;;;;;5060468;28;20391;-68
2023/06/17 04:51:48;;;;;;;1999.90;999.90;;;18.40;86.80;;;;;;5052240;28;20029;-70
2023/06/17 04:54:15;;;;;;;1999.90;999.90;;;18.40;86.90;;;;;;5052212;28;20028;-70
2023/06/17 04:56:43;;;;;;;1999.90;999.90;;;18.40;86.70;;;;;;5058376;28;20107;-70
2023/06/17 04:59:10;;;;;;;1999.90;999.90;;;18.40;86.90;;;;;;5063098;28;20087;-70
2023/06/17 05:01:37;;;;;;;1999.90;999.90;;;18.50;86.40;;;;;;5060885;28;20379;-69
2023/06/17 05:04:09;;;;;;;1999.90;999.90;;;18.40;87.20;;;;;;5058639;28;20060;-69
2023/06/17 05:06:36;;;;;;;1999.90;999.90;;;18.50;88.00;;;;;;5049997;28;20117;-70
2023/06/17 05:09:03;;;;;;;1999.90;999.90;;;18.40;88.10;;;;;;5056273;28;20029;-70
2023/06/17 05:11:31;;;;;;;1999.90;999.90;;;18.40;88.90;;;;;;5047959;28;20512;-68
2023/06/17 05:13:58;;;;;;;1999.90;999.90;;;18.30;89.10;;;;;;5058864;28;20024;-70
2023/06/17 05:16:25;;;;;;;1999.90;999.90;;;18.20;89.50;;;;;;5055492;28;20043;-72
2023/06/17 05:18:52;;;;;;;1999.90;999.90;;;18.30;89.60;;;;;;5059726;28;20384;-69
2023/06/17 05:21:23;;;;;;;1999.90;999.90;;;18.30;89.70;;;;;;5051757;28;20484;-70
2023/06/17 05:23:51;;;;;;;1999.90;999.90;;;18.30;89.60;;;;;;5057914;28;20384;-70
2023/06/17 05:26:18;;;;;;;1999.90;999.90;;;18.30;89.60;;;;;;5056628;28;20525;-68
2023/06/17 05:28:45;;;;;;;1999.90;999.90;;;18.30;90.00;;;;;;5063088;28;20029;-68
2023/06/17 05:31:13;;;;;;;1999.90;999.90;;;18.20;90.10;;;;;;5051518;28;20029;-70
2023/06/17 05:33:40;;;;;;;1999.90;999.90;;;18.20;90.10;;;;;;5051643;28;20025;-69
2023/06/17 05:36:08;;;;;;;1999.90;999.90;;;18.20;90.40;;;;;;5052615;28;20032;-68
2023/06/17 05:38:35;;;;;;;1999.90;999.90;;;18.20;90.40;;;;;;5062038;28;20024;-70
2023/06/17 05:41:03;;;;;;;1999.90;999.90;;;18.10;90.60;;;;;;5051889;28;20017;-69
2023/06/17 05:43:30;;;;;;;1999.90;999.90;;;18.10;90.40;;;;;;5055910;28;20040;-68
2023/06/17 05:45:57;;;;;;;1999.90;999.90;;;18.10;90.50;;;;;;5049561;28;20055;-69
2023/06/17 05:48:25;;;;;;;1999.90;999.90;;;18.10;90.50;;;;;;5051714;28;20059;-68
2023/06/17 05:50:52;;;;;;;1999.90;999.90;;;18.10;90.50;;;;;;5051064;28;20064;-68
2023/06/17 05:53:19;;;;;;;1999.90;999.90;;;18.10;90.60;;;;;;5054969;28;20025;-69
2023/06/17 05:55:47;;;;;;;1999.90;999.90;;;18.00;90.50;;;;;;5046550;28;20029;-69
2023/06/17 05:58:14;;;;;;;1999.90;999.90;;;18.00;90.70;;;;;;5053428;28;20025;-69
2023/06/17 06:00:41;;;;;;;1999.90;999.90;;;17.90;90.80;;;;;;5049291;28;20017;-69
2023/06/17 06:03:10;;;;;;;1999.90;999.90;;;18.00;90.80;;;;;;5051924;28;20049;-69
2023/06/17 06:05:37;;;;;;;1999.90;999.90;;;18.00;90.80;;;;;;5047879;28;20020;-72
2023/06/17 06:08:04;;;;;;;1999.90;999.90;;;18.10;90.90;;;;;;5052970;28;20469;-70
2023/06/17 06:10:32;;;;;;;1999.90;999.90;;;18.10;90.90;;;;;;5044984;28;20082;-70
2023/06/17 06:13:00;;;;;;;1999.90;999.90;;;18.10;91.10;;;;;;5055847;28;20028;-69
2023/06/17 06:15:27;;;;;;;1999.90;999.90;;;18.20;91.10;;;;;;5056134;28;20489;-69
2023/06/17 06:17:54;;;;;;;1999.90;999.90;;;18.20;90.90;;;;;;5060052;28;20024;-69
2023/06/17 06:20:22;;;;;;;1999.90;999.90;;;18.20;90.80;;;;;;5053754;28;20025;-70
2023/06/17 06:22:49;;;;;;;1999.90;999.90;;;18.20;91.00;;;;;;5057428;28;20021;-70
2023/06/17 06:25:17;;;;;;;1999.90;999.90;;;18.20;90.90;;;;;;5054318;28;20102;-73
2023/06/17 06:27:44;;;;;;;1999.90;999.90;;;18.20;90.80;;;;;;5055716;28;20025;-70
2023/06/17 06:30:12;;;;;;;1999.90;999.90;;;18.10;90.50;;;;;;5055427;28;20029;-72
2023/06/17 06:32:40;;;;;;;1999.90;999.90;;;18.00;90.70;;;;;;5059606;28;20048;-74
2023/06/17 06:35:07;;;;;;;1999.90;999.90;;;17.80;90.90;;;;;;5054208;28;20040;-70
2023/06/17 06:37:34;;;;;;;1999.90;999.90;;;17.60;91.10;;;;;;5048667;28;20039;-70
2023/06/17 06:40:05;;;;;;;1999.90;999.90;;;17.40;91.30;;;;;;5055321;28;20028;-72
2023/06/17 06:42:32;;;;;;;1999.90;999.90;;;17.20;91.60;;;;;;5057534;28;20060;-71
2023/06/17 06:44:59;;;;;;;1999.90;999.90;;;17.00;92.00;;;;;;5054888;28;20036;-71
2023/06/17 06:47:28;;;;;;;1999.90;999.90;;;16.80;92.20;;;;;;5052821;28;20064;-69
2023/06/17 06:49:56;;;;;;;1999.90;999.90;;;16.60;92.50;;;;;;5059512;28;20058;-69
2023/06/17 06:52:23;;;;;;;1999.90;999.90;;;16.40;92.80;;;;;;5050912;28;20077;-73
2023/06/17 06:54:51;;;;;;;1999.90;999.90;;;16.20;93.00;;;;;;5057375;28;20025;-71
2023/06/17 06:57:18;;;;;;;1999.90;999.90;;;16.10;93.50;;;;;;5055152;28;20064;-69
2023/06/17 06:59:45;;;;;;;1999.90;999.90;;;15.90;93.60;;;;;;5057724;28;20496;-70
2023/06/17 07:02:13;;;;;;;1999.90;999.90;;;15.80;93.90;;;;;;5051114;28;20032;-70
2023/06/17 07:04:41;;;;;;;1999.90;999.90;;;15.70;94.00;;;;;;5062243;28;20041;-69
2023/06/17 07:07:09;;;;;;;1999.90;999.90;;;15.50;94.40;;;;;;5052954;28;20025;-71
2023/06/17 07:09:36;;;;;;;1999.90;999.90;;;15.40;94.60;;;;;;5054454;28;20036;-71
2023/06/17 07:12:04;;;;;;;1999.90;999.90;;;15.20;95.10;;;;;;5049303;28;20048;-70
2023/06/17 07:14:32;;;;;;;1999.90;999.90;;;15.00;95.30;;;;;;5061987;28;20024;-70
2023/06/17 07:16:59;;;;;;;1999.90;999.90;;;14.90;95.50;;;;;;5050544;28;20059;-70
2023/06/17 07:19:26;;;;;;;1999.90;999.90;;;14.80;95.70;;;;;;5055692;28;20020;-72
2023/06/17 07:21:54;;;;;;;1999.90;999.90;;;14.60;95.90;;;;;;5057388;28;20020;-70
2023/06/17 07:24:21;;;;;;;1999.90;999.90;;;14.50;96.20;;;;;;5053502;28;20029;-69
2023/06/17 07:26:49;;;;;;;1999.90;999.90;;;14.40;96.40;;;;;;5052393;28;20078;-70
2023/06/17 07:29:16;;;;;;;1999.90;999.90;;;14.20;96.70;;;;;;5048873;28;20397;-70
2023/06/17 07:31:43;;;;;;;1999.90;999.90;;;14.10;97.00;;;;;;5051411;28;20095;-70
2023/06/17 07:34:11;;;;;;;1999.90;999.90;;;14.00;97.20;;;;;;5050979;28;20055;-73
2023/06/17 07:36:38;;;;;;;1999.90;999.90;;;13.80;97.50;;;;;;5046289;28;20036;-69
2023/06/17 07:39:05;;;;;;;1999.90;999.90;;;13.80;97.90;;;;;;5054986;28;20020;-69
2023/06/17 07:41:32;;;;;;;1999.90;999.90;;;13.70;98.10;;;;;;5060527;28;20096;-69
2023/06/17 07:44:00;;;;;;;1999.90;999.90;;;13.60;98.40;;;;;;5050320;28;20025;-68
2023/06/17 07:46:27;;;;;;;1999.90;999.90;;;13.50;98.50;;;;;;5050839;28;20108;-71
2023/06/17 07:48:55;;;;;;;1999.90;999.90;;;13.50;98.70;;;;;;5061758;28;20028;-71
2023/06/17 07:51:22;;;;;;;1999.90;999.90;;;13.50;99.10;;;;;;5054077;28;20045;-69
2023/06/17 07:53:49;;;;;;;1999.90;999.90;;;13.40;99.10;;;;;;5061557;28;20349;-69
2023/06/17 07:56:20;;;;;;;1999.90;999.90;;;13.30;99.30;;;;;;5059763;28;20063;-70
2023/06/17 07:58:48;;;;;;;1999.90;999.90;;;13.20;99.60;;;;;;5064074;28;20032;-71
2023/06/17 08:01:15;;;;;;;1999.90;999.90;;;13.10;99.80;;;;;;5060980;28;20063;-69
2023/06/17 08:03:43;;;;;;;1999.90;999.90;;;13.10;99.90;;;;;;5060231;28;20044;-69
2023/06/17 08:06:14;;;;;;;1999.90;999.90;;;13.00;99.90;;;;;;5057480;28;20523;-69
2023/06/17 08:08:45;;;;;;;1999.90;999.90;;;12.90;99.90;;;;;;5060756;28;20035;-71
2023/06/17 08:11:13;;;;;;;1999.90;999.90;;;12.80;99.90;;;;;;5058434;28;20071;-70
2023/06/17 08:13:40;;;;;;;1999.90;999.90;;;12.70;99.90;;;;;;5058802;28;20029;-71
2023/06/17 08:16:07;;;;;;;1999.90;999.90;;;12.70;99.90;;;;;;5059665;28;20025;-70
2023/06/17 08:18:35;;;;;;;1999.90;999.90;;;12.60;99.90;;;;;;5061688;28;20045;-69
2023/06/17 08:21:02;;;;;;;1999.90;999.90;;;12.50;99.90;;;;;;5059789;28;20574;-69
2023/06/17 08:23:29;;;;;;;1999.90;999.90;;;12.50;99.90;;;;;;5061979;28;20044;-70
2023/06/17 08:25:57;;;;;;;1999.90;999.90;;;12.40;99.90;;;;;;5053501;28;20025;-69
2023/06/17 08:28:24;;;;;;;1999.90;999.90;;;12.40;99.90;;;;;;5063765;28;20097;-70
2023/06/17 08:30:52;;;;;;;1999.90;999.90;;;12.30;99.90;;;;;;5059320;28;20037;-70
2023/06/17 08:33:19;;;;;;;1999.90;999.90;;;12.20;99.90;;;;;;5047584;28;20035;-73
2023/06/17 08:35:46;;;;;;;1999.90;999.90;;;12.10;99.90;;;;;;5060206;28;20029;-73
2023/06/17 08:38:14;;;;;;;1999.90;999.90;;;12.10;99.90;;;;;;5059823;28;20029;-69
2023/06/17 08:40:45;;;;;;;1999.90;999.90;;;12.00;99.90;;;;;;5056242;28;20032;-72
2023/06/17 08:43:20;;;;;;;1999.90;999.90;;;11.90;99.90;;;;;;5060767;28;20592;-72
2023/06/17 08:46:04;;;;;;;1999.90;999.90;;;11.80;99.90;;;;;;5054320;28;20048;-69
2023/06/17 08:48:32;;;;;;;1999.90;999.90;;;11.70;99.90;;;;;;5060374;28;20472;-70
2023/06/17 08:51:00;;;;;;;1999.90;999.90;;;11.60;99.90;;;;;;5053559;28;20047;-70
2023/06/17 08:53:28;;;;;;;1999.90;999.90;;;11.50;99.90;;;;;;5062474;28;20112;-72
2023/06/17 08:55:55;;;;;;;1999.90;999.90;;;11.40;99.90;;;;;;5059875;28;20035;-70
2023/06/17 08:58:23;;;;;;;1999.90;999.90;;;11.40;99.90;;;;;;5066408;28;20515;-70
2023/06/17 09:00:51;;;;;;;1999.90;999.90;;;11.20;99.90;;;;;;5053613;28;20017;-70
2023/06/17 09:03:21;;;;;;;1999.90;999.90;;;11.10;99.90;;;;;;5055776;28;20033;-72
2023/06/17 09:05:54;;;;;;;1999.90;999.90;;;11.00;99.90;;;;;;5053453;28;20100;-72
2023/06/17 09:08:22;;;;;;;1999.90;999.90;;;10.90;99.90;;;;;;5055651;28;20376;-73
2023/06/17 09:10:49;;;;;;;1999.90;999.90;;;10.80;99.90;;;;;;5052300;28;20033;-71
2023/06/17 09:13:17;;;;;;;1999.90;999.90;;;10.70;99.90;;;;;;5050780;28;20087;-74
2023/06/17 09:15:44;;;;;;;1999.90;999.90;;;10.60;99.90;;;;;;5051398;28;20506;-71
2023/06/17 09:18:15;;;;;;;1999.90;999.90;;;10.60;99.90;;;;;;5054259;28;20441;-69
2023/06/17 09:20:49;;;;;;;1999.90;999.90;;;10.60;99.90;;;;;;5046445;28;20385;-70
2023/06/17 09:23:20;;;;;;;1999.90;999.90;;;10.50;99.90;;;;;;5054638;28;20021;-70
2023/06/17 09:25:47;;;;;;;1999.90;999.90;;;10.50;99.90;;;;;;5053924;28;20082;-70
2023/06/17 09:28:17;;;;;;;1999.90;999.90;;;10.40;99.90;;;;;;5053831;28;20530;-72
2023/06/17 09:30:53;;;;;;;1999.90;999.90;;;10.30;99.90;;;;;;5057912;28;20083;-71
2023/06/17 09:33:20;;;;;;;;;;;10.30;99.90;;;;;;5047291;28;20033;-74
2023/06/17 09:35:57;;;;;;;1999.90;999.90;;;10.20;99.90;;;;;;5055381;28;19915;-71
2023/06/17 09:38:26;;;;;;;1999.90;999.90;;;10.20;99.90;;;;;;5065567;28;20368;-71
2023/06/17 09:40:54;;;;;;;1999.90;999.90;;;10.20;99.90;;;;;;5052533;28;20052;-70
2023/06/17 09:43:28;;;;;;;1999.90;999.90;;;10.20;99.90;;;;;;5058974;28;20490;-71
2023/06/17 09:46:00;;;;;;;1999.90;999.90;;;10.10;99.90;;;;;;5055108;28;20127;-71
2023/06/17 09:48:35;;;;;;;1999.90;999.90;;;10.20;99.90;;;;;;5053228;28;20066;-72
2023/06/17 09:51:05;;;;;;;1999.90;999.90;;;10.30;99.90;;;;;;5055357;28;20035;-69
2023/06/17 09:53:33;;;;;;;1999.90;999.90;;;10.30;99.90;;;;;;5060461;28;20494;-70
2023/06/17 09:56:00;;;;;;;1999.90;999.90;;;10.30;99.90;;;;;;5059731;28;20067;-70
2023/06/17 09:58:31;;;;;;;1999.90;999.90;;;10.30;99.90;;;;;;5061352;28;20079;-70
2023/06/17 10:01:00;;;;;;;1999.90;999.90;;;10.20;99.90;;;;;;5052930;28;20074;-70
2023/06/17 10:03:30;;;;;;;1999.90;999.90;;;10.10;99.90;;;;;;5060459;28;20127;-70
2023/06/17 10:06:06;;;;;;;1999.90;999.90;;;10.00;99.90;;;;;;5055557;28;20526;-70
2023/06/17 10:08:37;;;;;;;1999.90;999.90;;;9.90;99.90;;;;;;5059590;28;20040;-70
2023/06/17 10:11:04;;;;;;;1999.90;999.90;;;9.90;99.90;;;;;;5055723;28;20076;-69
2023/06/17 10:13:36;;;;;;;1999.90;999.90;;;9.80;99.90;;;;;;5053215;28;20033;-70
2023/06/17 10:16:08;;;;;;;1999.90;999.90;;;9.70;99.90;;;;;;5054646;28;20068;-69
2023/06/17 10:18:38;;;;;;;1999.90;999.90;;;9.60;99.90;;;;;;5057360;28;20032;-70
2023/06/17 10:21:09;;;;;;;1999.90;999.90;;;9.50;99.90;;;;;;5054878;28;20032;-70
2023/06/17 10:23:38;;;;;;;1999.90;999.90;;;9.50;99.90;;;;;;5051692;28;20017;-69
2023/06/17 10:26:11;;;;;;;1999.90;999.90;;;9.40;99.90;;;;;;5051130;28;20048;-69
2023/06/17 10:28:59;;;;;;;1999.90;999.90;;;9.40;99.90;;;;;;5053273;28;20017;-69
2023/06/17 10:31:30;;;;;;;1999.90;999.90;;;9.30;99.90;;;;;;5047920;28;20064;-70
2023/06/17 10:34:01;;;;;;;1999.90;999.90;;;9.20;99.90;;;;;;5054227;28;20438;-70
2023/06/17 10:36:28;;;;;;;1999.90;999.90;;;9.10;99.90;;;;;;5045871;28;20658;-70
2023/06/17 10:38:56;;;;;;;1999.90;999.90;;;9.00;99.90;;;;;;5060797;28;20065;-70
2023/06/17 10:41:50;;;;;;;1999.90;999.90;;;8.90;99.90;;;;;;5052997;28;20025;-71
2023/06/17 10:44:34;;;;;;;1999.90;999.90;;;8.90;99.90;;;;;;5046435;28;20056;-71
2023/06/17 10:47:15;;;;;;;1999.90;999.90;;;8.90;99.90;;;;;;5049165;28;20037;-75
2023/06/17 10:49:43;;;;;;;1999.90;999.90;;;8.90;99.90;;;;;;5051804;28;20030;-71
2023/06/17 10:52:15;;;;;;;1999.90;999.90;;;8.90;99.90;;;;;;5049181;28;20064;-71
2023/06/17 10:55:01;;;;;;;1999.90;999.90;;;8.80;99.90;;;;;;5047846;28;20037;-71
2023/06/17 10:57:37;;;;;;;1999.90;999.90;;;8.80;99.90;;;;;;5042542;28;20033;-71
2023/06/17 11:00:11;;;;;;;1999.90;999.90;;;8.70;99.90;;;;;;5044239;28;20086;-71
2023/06/17 11:02:40;;;;;;;1999.90;999.90;;;8.70;99.90;;;;;;5055260;28;20036;-70
2023/06/17 11:05:08;;;;;;;1999.90;999.90;;;8.70;99.90;;;;;;5054523;28;20057;-71
2023/06/17 11:07:36;;;;;;;1999.90;999.90;;;8.70;99.90;;;;;;5056679;28;20021;-74
2023/06/17 11:10:04;;;;;;;1999.90;999.90;;;8.60;99.90;;;;;;5058449;28;20140;-72
2023/06/17 11:12:37;;;;;;;1999.90;999.90;;;8.50;99.90;;;;;;5061769;28;20130;-72
2023/06/17 11:15:07;;;;;;;1999.90;999.90;;;8.40;99.90;;;;;;5056626;28;20024;-71
2023/06/17 11:17:35;;;;;;;1999.90;999.90;;;8.40;99.90;;;;;;5057999;28;20111;-70
2023/06/17 11:20:05;;;;;;;1999.90;999.90;;;8.30;99.90;;;;;;5060801;28;20384;-71
2023/06/17 11:22:40;;;;;;;1999.90;999.90;;;8.20;99.90;;;;;;5055929;28;20025;-72
2023/06/17 11:25:10;;;;;;;1999.90;999.90;;;8.10;99.90;;;;;;5062748;28;20056;-72
2023/06/17 11:27:40;;;;;;;1999.90;999.90;;;8.10;99.90;;;;;;5061745;28;20029;-72
2023/06/17 11:30:08;;;;;;;1999.90;999.90;;;8.10;99.90;;;;;;5056196;28;20033;-70
2023/06/17 11:32:36;;;;;;;1999.90;999.90;;;8.00;99.90;;;;;;5057975;28;20053;-70
2023/06/17 11:35:03;;;;;;;1999.90;999.90;;;8.00;99.90;;;;;;5057996;28;20021;-72
2023/06/17 11:37:31;;;;;;;1999.90;999.90;;;7.90;99.90;;;;;;5059063;28;20063;-74
2023/06/17 11:39:58;;;;;;;1999.90;999.90;;;7.90;99.90;;;;;;5060995;28;20042;-72
2023/06/17 11:42:26;;;;;;;1999.90;999.90;;;8.00;99.90;;;;;;5056122;28;20041;-72
2023/06/17 11:44:54;;;;;;;1999.90;999.90;;;7.90;99.90;;;;;;5060720;28;20028;-69
2023/06/17 11:47:35;;;;;;;1999.90;999.90;;;7.90;99.90;;;;;;5059144;28;20028;-71
2023/06/17 11:50:07;;;;;;;1999.90;999.90;;;7.80;99.90;;;;;;5054780;28;20108;-73
2023/06/17 11:52:36;;;;;;;1999.90;999.90;;;7.80;99.90;;;;;;5062301;28;20036;-71
2023/06/17 11:55:04;;;;;;;1999.90;999.90;;;7.70;99.90;;;;;;5063763;28;20032;-72
2023/06/17 11:57:32;;;;;;;1999.90;999.90;;;7.70;99.90;;;;;;5061689;28;20032;-70
2023/06/17 12:00:04;;;;;;;1999.90;999.90;;;7.70;99.90;;;;;;5064924;28;20025;-71
2023/06/17 12:02:34;;;;;;;1999.90;999.90;;;7.70;99.90;;;;;;5060164;28;20049;-71
2023/06/17 12:05:03;;;;;;;1999.90;999.90;;;7.60;99.90;;;;;;5063211;28;20045;-72
2023/06/17 12:07:39;;;;;;;1999.90;999.90;;;7.60;99.90;;;;;;5052938;28;20017;-70
2023/06/17 12:10:07;;;;;;;1999.90;999.90;;;7.60;99.90;;;;;;5058944;28;20028;-72